Indianápolis, IN

8:29 AM EDT en Noviembre 01, 2014 (GMT -0400)
North Fountain Square | Change Station
CLOSE
Current Station
Estación meteorológica personal
Location: Indianapolis, IN
Altura: 738 ft
Estaciones meteorológicas cercanas

Alt 738 ft 39.76 °N, 86.14 °W | Updated 27 seconds ago

Parcialmente nublado
Parcialmente nublado
31.3 ° F
Sensación térmica 28 ° F
N
3.4
Viento Variable Viento desde NNO
Gusts 4.9 mph

Hoy
Alta -- | Baja -- ° F
--% Posibilidad de precipitaciones
Ayer
Alta -- | Baja -- ° F
Precip. -- pul
8:13 AM 6:42 PM
Gibosa creciente, 66% visible
Presión 30.30 pul
Visibilidad 10.0 Millas
Nubes Baja 2800 ft
Baja 8000 ft
Vientos helados 28 ° F
Punto de rocío 23 ° F
Humedad 71%
Precipitaciones 0.00 pul
Espesor de la nieve No disponible.
UV 0 de una escala de 12
Polen .10 de una escala de 12
Calidad del aire No disponible.
Flu Activity No disponible.
METAR KIND 011154Z 34015KT 10SM FEW028 FEW080 M01/M06 A3028 RMK AO2 SLP261 70020 T10111061 10000 21011 51024

More Conditions Fewer Conditions

Presión 30.30 pul
Visibilidad 10.0 Millas
Nubes Baja 2800 ft
Baja 8000 ft
Vientos helados 28 ° F
Punto de rocío 23 ° F
Humedad 71%
Precipitaciones 0.00 pul
Espesor de la nieve No disponible.
UV 0 de una escala de 12
Polen .10 de una escala de 12
Calidad del aire No disponible.
Flu Activity No disponible.
METAR KIND 011154Z 34015KT 10SM FEW028 FEW080 M01/M06 A3028 RMK AO2 SLP261 70020 T10111061 10000 21011 51024

More Conditions Fewer Conditions

10-Day Weather Forecast

Almanac

Astronomía

Nov. 01, 2014 Salida Puesta
Hora real
Crepúsculo civil
Crepúsculo náutico
Crepúsculo astronómico
Luna
Horas de luz
Horas de luz
Tomorrow will be .
, % of the Moon is Illuminated

Extremos de hoy

Máximos del estado Bajos del estado

Community

WunderPhotos

Upload Photos

1,766,912 ¡fotos cargadas!

WunderBlogs® & News

Nearby

Calidad del aire

  Calidad del aire Índice AQ Contaminante
Not available.

Grosos de nieve

Estación Profundido Altura

Actividad de terremotos

Ciudad Distance Mag. Tiempo y dato
Magnitud mínima muestra es 2,5.

Temperaturas de aguas costeras

Lugar Temperatura

Estaciones meteorológicas cercanas